createdAt,value
2019-04-04T00:02:06.249Z,949.9
2019-04-04T00:05:12.319Z,949.9
2019-04-04T00:08:18.376Z,949.9
2019-04-04T00:11:24.333Z,949.8
2019-04-04T00:14:30.397Z,949.9
2019-04-04T00:17:36.463Z,949.9
2019-04-04T00:20:42.419Z,949.8
2019-04-04T00:23:48.479Z,949.8
2019-04-04T00:26:54.439Z,949.8
2019-04-04T00:30:00.504Z,949.7
2019-04-04T00:33:06.573Z,949.7
2019-04-04T00:36:12.523Z,949.6
2019-04-04T00:39:18.586Z,949.6
2019-04-04T00:42:24.464Z,949.6
2019-04-04T00:45:30.713Z,949.6
2019-04-04T00:48:36.669Z,949.6
2019-04-04T00:51:42.632Z,949.6
2019-04-04T00:54:48.692Z,949.6
2019-04-04T00:57:54.581Z,949.6
2019-04-04T01:01:00.620Z,949.5
2019-04-04T01:04:06.674Z,949.5
2019-04-04T01:07:12.558Z,949.6
2019-04-04T01:10:20.646Z,949.6
2019-04-04T01:13:28.757Z,949.6
2019-04-04T01:16:35.331Z,949.6
2019-04-04T01:19:41.335Z,949.6
2019-04-04T01:22:50.563Z,949.5
2019-04-04T01:26:04.095Z,949.5
2019-04-04T01:29:12.170Z,949.6
2019-04-04T01:32:18.755Z,949.6
2019-04-04T01:35:24.826Z,949.5
2019-04-04T01:38:31.082Z,949.6
2019-04-04T01:41:39.719Z,949.6
2019-04-04T01:44:45.761Z,949.5
2019-04-04T01:47:51.818Z,949.5
2019-04-04T01:50:57.696Z,949.6
2019-04-04T01:54:03.638Z,949.5
2019-04-04T01:57:10.005Z,949.5
2019-04-04T02:00:16.990Z,949.6
2019-04-04T02:03:24.484Z,949.6
2019-04-04T02:06:30.444Z,949.5
2019-04-04T02:09:36.404Z,949.5
2019-04-04T02:12:45.164Z,949.5
2019-04-04T02:15:51.091Z,949.5
2019-04-04T02:18:57.160Z,949.4
2019-04-04T02:22:03.031Z,949.4
2019-04-04T02:25:09.081Z,949.4
2019-04-04T02:28:14.953Z,949.4
2019-04-04T02:31:22.838Z,949.4
2019-04-04T02:34:28.718Z,949.4
2019-04-04T02:37:34.654Z,949.5
2019-04-04T02:40:43.274Z,949.4
2019-04-04T02:43:49.338Z,949.4
2019-04-04T02:46:55.306Z,949.3
2019-04-04T02:50:02.944Z,949.4
2019-04-04T02:53:08.857Z,949.3
2019-04-04T02:56:21.378Z,949.3
2019-04-04T02:59:27.253Z,949.2
2019-04-04T03:02:37.074Z,949.2
2019-04-04T03:05:43.034Z,949.3
2019-04-04T03:08:55.445Z,949.3
2019-04-04T03:12:01.483Z,949.3
2019-04-04T03:15:10.896Z,949.3
2019-04-04T03:18:16.943Z,949.2
2019-04-04T03:21:24.660Z,949.2
2019-04-04T03:24:30.774Z,949.1
2019-04-04T03:27:46.291Z,949.2
2019-04-04T03:31:04.425Z,949.1
2019-04-04T03:34:13.924Z,949.2
2019-04-04T03:37:20.065Z,949.2
2019-04-04T03:40:27.118Z,949.2
2019-04-04T03:43:33.064Z,949.1
2019-04-04T03:46:40.251Z,949.1
2019-04-04T03:49:46.317Z,949.2
2019-04-04T03:52:52.416Z,949.2
2019-04-04T03:56:02.170Z,949.3
2019-04-04T03:59:08.184Z,949.2
2019-04-04T04:02:18.746Z,949.2
2019-04-04T04:05:24.816Z,949.3
2019-04-04T04:08:38.562Z,949.4
2019-04-04T04:11:44.740Z,949.4
2019-04-04T04:14:55.947Z,949.5
2019-04-04T04:18:01.833Z,949.5
2019-04-04T04:21:11.963Z,949.5
2019-04-04T04:24:17.872Z,949.5
2019-04-04T04:27:23.839Z,949.6
2019-04-04T04:30:29.806Z,949.6
2019-04-04T04:33:35.859Z,949.6
2019-04-04T04:36:41.765Z,949.6
2019-04-04T04:39:52.282Z,949.7
2019-04-04T04:43:01.672Z,949.6
2019-04-04T04:46:07.682Z,949.6
2019-04-04T04:49:13.847Z,949.7
2019-04-04T04:52:19.910Z,949.6
2019-04-04T04:55:28.817Z,949.6
2019-04-04T04:58:34.795Z,949.6
2019-04-04T05:01:44.658Z,949.6
2019-04-04T05:04:54.881Z,949.6
2019-04-04T05:08:04.861Z,949.6
2019-04-04T05:11:20.395Z,949.6
2019-04-04T05:14:27.783Z,949.6
2019-04-04T05:17:35.774Z,949.6
2019-04-04T05:20:44.929Z,949.6
2019-04-04T05:23:50.888Z,949.6
2019-04-04T05:26:56.852Z,949.6
2019-04-04T05:30:02.888Z,949.6
2019-04-04T05:33:12.411Z,949.6
2019-04-04T05:36:18.290Z,949.5
2019-04-04T05:39:24.448Z,949.6
2019-04-04T05:42:34.370Z,949.6
2019-04-04T05:45:40.450Z,949.6
2019-04-04T05:48:50.035Z,949.6
2019-04-04T05:51:56.171Z,949.5
2019-04-04T05:55:02.263Z,949.6
2019-04-04T05:58:11.823Z,949.5
2019-04-04T06:01:18.075Z,949.5
2019-04-04T06:04:24.251Z,949.4
2019-04-04T06:07:30.341Z,949.4
2019-04-04T06:10:40.534Z,949.5
2019-04-04T06:13:46.475Z,949.5
2019-04-04T06:16:52.440Z,949.4
2019-04-04T06:19:58.399Z,949.4
2019-04-04T06:23:04.357Z,949.5
2019-04-04T06:26:10.421Z,949.5
2019-04-04T06:29:18.680Z,949.5
2019-04-04T06:32:24.652Z,949.5
2019-04-04T06:35:33.998Z,949.5
2019-04-04T06:38:45.425Z,949.5
2019-04-04T06:41:58.311Z,949.6
2019-04-04T06:45:08.224Z,949.6
2019-04-04T06:48:18.168Z,949.5
2019-04-04T06:51:24.040Z,949.6
2019-04-04T06:54:30.025Z,949.6
2019-04-04T06:57:38.492Z,949.6
2019-04-04T07:00:48.390Z,949.6
2019-04-04T07:04:00.188Z,949.6
2019-04-04T07:07:06.302Z,949.5
2019-04-04T07:10:15.655Z,949.6
2019-04-04T07:13:42.989Z,949.5
2019-04-04T07:16:49.253Z,949.5
2019-04-04T07:19:56.051Z,949.5
2019-04-04T07:23:02.009Z,949.5
2019-04-04T07:26:14.686Z,949.5
2019-04-04T07:29:20.807Z,949.5
2019-04-04T07:32:30.848Z,949.5
2019-04-04T07:35:38.768Z,949.5
2019-04-04T07:38:44.817Z,949.5
2019-04-04T07:41:50.692Z,949.5
2019-04-04T07:44:56.833Z,949.5
2019-04-04T07:48:05.667Z,949.5
2019-04-04T07:51:14.639Z,949.5
2019-04-04T07:54:20.656Z,949.6
2019-04-04T07:57:26.693Z,949.6
2019-04-04T08:00:35.341Z,949.6
2019-04-04T08:03:41.457Z,949.5
2019-04-04T08:06:47.413Z,949.5
2019-04-04T08:09:53.346Z,949.5
2019-04-04T08:12:59.536Z,949.5
2019-04-04T08:16:05.443Z,949.6
2019-04-04T08:19:11.609Z,949.6
2019-04-04T08:22:20.882Z,949.5
2019-04-04T08:25:27.381Z,949.6
2019-04-04T08:28:33.332Z,949.5
2019-04-04T08:31:39.335Z,949.5
2019-04-04T08:34:45.315Z,949.6
2019-04-04T08:41:14.763Z,949.5
2019-04-04T08:44:20.791Z,949.4
2019-04-04T08:47:26.871Z,949.5
2019-04-04T08:50:32.863Z,949.5
2019-04-04T08:53:41.538Z,949.4
2019-04-04T08:56:47.630Z,949.3
2019-04-04T08:59:53.673Z,949.4
2019-04-04T09:02:59.638Z,949.3
2019-04-04T09:06:05.504Z,949.3
2019-04-04T09:09:11.474Z,949.2
2019-04-04T09:12:17.348Z,949.2
2019-04-04T09:15:23.367Z,949.2
2019-04-04T09:18:30.190Z,949.1
2019-04-04T09:21:36.213Z,949.1
2019-04-04T09:24:45.133Z,949
2019-04-04T09:27:51.009Z,949
2019-04-04T09:30:57.053Z,949
2019-04-04T09:34:02.932Z,949
2019-04-04T09:37:11.746Z,948.9
2019-04-04T09:40:18.828Z,948.9
2019-04-04T09:43:24.711Z,948.8
2019-04-04T09:46:30.742Z,948.8
2019-04-04T09:49:43.870Z,948.7
2019-04-04T09:52:49.900Z,948.7
2019-04-04T09:55:56.053Z,948.6
2019-04-04T09:59:02.260Z,948.6
2019-04-04T10:02:08.325Z,948.6
2019-04-04T10:05:14.638Z,948.5
2019-04-04T10:08:20.761Z,948.4
2019-04-04T10:11:27.131Z,948.4
2019-04-04T10:14:33.069Z,948.4
2019-04-04T10:17:39.094Z,948.3
2019-04-04T10:20:45.051Z,948.3
2019-04-04T10:23:51.063Z,948.3
2019-04-04T10:26:56.941Z,948.1
2019-04-04T10:30:06.365Z,948.1
2019-04-04T10:33:12.423Z,948.1
2019-04-04T10:36:18.310Z,948
2019-04-04T10:39:33.419Z,948
2019-04-04T10:42:39.414Z,948
2019-04-04T10:45:45.431Z,947.9
2019-04-04T10:48:51.448Z,947.9
2019-04-04T10:51:58.321Z,947.8
2019-04-04T10:55:04.494Z,947.7
2019-04-04T10:58:10.445Z,947.7
2019-04-04T11:01:16.514Z,947.8
2019-04-04T11:04:22.467Z,947.7
2019-04-04T11:07:28.531Z,947.7
2019-04-04T11:10:34.414Z,947.7
2019-04-04T11:13:40.345Z,947.6
2019-04-04T11:16:46.420Z,947.5
2019-04-04T11:19:52.369Z,947.4
2019-04-04T11:22:58.436Z,947.3
2019-04-04T11:26:05.465Z,947.3
2019-04-04T11:29:11.492Z,947.3
2019-04-04T11:32:17.485Z,947.1
2019-04-04T11:35:23.407Z,947.1
2019-04-04T11:38:29.360Z,947.1
2019-04-04T11:41:35.284Z,947
2019-04-04T11:44:41.330Z,947
2019-04-04T11:47:50.017Z,947
2019-04-04T11:50:55.879Z,946.9
2019-04-04T11:54:01.818Z,946.8
2019-04-04T11:57:07.829Z,946.8
2019-04-04T12:00:13.745Z,946.7
2019-04-04T12:03:19.699Z,946.7
2019-04-04T12:06:25.761Z,946.6
2019-04-04T12:09:31.725Z,946.5
2019-04-04T12:12:37.621Z,946.4
2019-04-04T12:15:43.645Z,946.4
2019-04-04T12:18:49.750Z,946.3
2019-04-04T12:21:55.918Z,946.3
2019-04-04T12:25:01.850Z,946.1
2019-04-04T12:28:07.844Z,946.1
2019-04-04T12:31:13.950Z,946.1
2019-04-04T12:34:19.965Z,946
2019-04-04T12:37:25.997Z,946
2019-04-04T12:40:31.881Z,945.9
2019-04-04T12:43:37.801Z,946
2019-04-04T12:46:43.852Z,946
2019-04-04T12:49:50.359Z,945.9
2019-04-04T12:52:57.236Z,945.9
2019-04-04T12:56:03.617Z,945.9
2019-04-04T12:59:09.760Z,945.9
2019-04-04T13:02:15.854Z,945.9
2019-04-04T13:05:22.037Z,945.9
2019-04-04T13:08:31.105Z,945.8
2019-04-04T13:11:37.063Z,945.8
2019-04-04T13:14:43.024Z,945.7
2019-04-04T13:17:48.911Z,945.8
2019-04-04T13:20:54.991Z,945.8
2019-04-04T13:24:00.877Z,945.7
2019-04-04T13:27:06.963Z,945.6
2019-04-04T13:30:12.974Z,945.5
2019-04-04T13:33:19.014Z,945.6
2019-04-04T13:36:28.430Z,945.6
2019-04-04T13:39:34.425Z,945.6
2019-04-04T13:42:41.635Z,945.6
2019-04-04T13:45:47.900Z,945.5
2019-04-04T13:48:53.841Z,945.4
2019-04-04T13:51:59.867Z,945.5
2019-04-04T13:55:07.484Z,945.4
2019-04-04T13:58:13.626Z,945.4
2019-04-04T14:01:27.727Z,945.5
2019-04-04T14:04:34.022Z,945.4
2019-04-04T14:07:43.401Z,945.4
2019-04-04T14:10:59.327Z,945.4
2019-04-04T14:14:05.293Z,945.4
2019-04-04T14:17:11.564Z,945.4
2019-04-04T14:20:17.591Z,945.3
2019-04-04T14:23:23.680Z,945.3
2019-04-04T14:26:32.777Z,945.3
2019-04-04T14:29:38.878Z,945.3
2019-04-04T14:32:45.177Z,945.4
2019-04-04T14:35:51.670Z,945.4
2019-04-04T14:38:57.679Z,945.4
2019-04-04T14:42:04.661Z,945.4
2019-04-04T14:45:10.619Z,945.4
2019-04-04T14:48:16.576Z,945.4
2019-04-04T14:51:22.479Z,945.4
2019-04-04T14:54:30.958Z,945.4
2019-04-04T14:57:37.131Z,945.4
2019-04-04T15:00:43.055Z,945.4
2019-04-04T15:03:49.246Z,945.5
2019-04-04T15:06:55.208Z,945.4
2019-04-04T15:10:01.275Z,945.4
2019-04-04T15:13:07.234Z,945.4
2019-04-04T15:16:13.298Z,945.4
2019-04-04T15:19:19.257Z,945.4
2019-04-04T15:22:25.141Z,945.4
2019-04-04T15:25:34.344Z,945.4
2019-04-04T15:28:40.267Z,945.4
2019-04-04T15:31:46.263Z,945.4
2019-04-04T15:34:52.246Z,945.4
2019-04-04T15:37:58.122Z,945.4
2019-04-04T15:41:07.035Z,945.4
2019-04-04T15:44:12.892Z,945.4
2019-04-04T15:47:19.031Z,945.4
2019-04-04T15:50:24.998Z,945.3
2019-04-04T15:53:30.968Z,945.4
2019-04-04T15:56:36.830Z,945.3
2019-04-04T15:59:42.892Z,945.4
2019-04-04T16:02:48.949Z,945.4
2019-04-04T16:05:54.941Z,945.3
2019-04-04T16:09:00.965Z,945.4
2019-04-04T16:12:06.921Z,945.5
2019-04-04T16:15:12.814Z,945.5
2019-04-04T16:18:18.779Z,945.6
2019-04-04T16:21:24.799Z,945.5
2019-04-04T16:24:30.671Z,945.5
2019-04-04T16:27:36.618Z,945.6
2019-04-04T16:30:42.606Z,945.7
2019-04-04T16:33:48.558Z,945.7
2019-04-04T16:36:54.606Z,945.8
2019-04-04T16:40:10.635Z,945.8
2019-04-04T16:43:16.660Z,945.8
2019-04-04T16:46:22.533Z,945.9
2019-04-04T16:49:28.493Z,945.9
2019-04-04T16:52:34.430Z,945.8
2019-04-04T16:55:40.497Z,945.7
2019-04-04T16:58:46.562Z,945.8
2019-04-04T17:01:52.429Z,945.8
2019-04-04T17:04:58.479Z,945.9
2019-04-04T17:08:04.432Z,945.8
2019-04-04T17:11:10.310Z,945.9
2019-04-04T17:14:16.354Z,945.9
2019-04-04T17:17:25.227Z,946
2019-04-04T17:20:31.164Z,946
2019-04-04T17:23:37.230Z,946
2019-04-04T17:26:43.170Z,946.1
2019-04-04T17:29:49.781Z,946
2019-04-04T17:32:57.689Z,946.1
2019-04-04T17:36:06.514Z,946.2
2019-04-04T17:39:14.126Z,946.3
2019-04-04T17:42:33.882Z,946.3
2019-04-04T17:45:41.536Z,946.4
2019-04-04T17:48:49.366Z,946.4
2019-04-04T17:51:56.605Z,946.4
2019-04-04T17:55:03.833Z,946.4
2019-04-04T17:58:10.527Z,946.5
2019-04-04T18:01:18.828Z,946.6
2019-04-04T18:04:24.760Z,946.5
2019-04-04T18:07:30.750Z,946.6
2019-04-04T18:10:36.641Z,946.6
2019-04-04T18:13:42.666Z,946.6
2019-04-04T18:16:48.628Z,946.7
2019-04-04T18:19:54.588Z,946.7
2019-04-04T18:23:00.548Z,946.7
2019-04-04T18:26:06.508Z,946.7
2019-04-04T18:29:12.406Z,946.8
2019-04-04T18:32:18.426Z,946.7
2019-04-04T18:35:25.378Z,946.8
2019-04-04T18:38:32.647Z,946.9
2019-04-04T18:41:39.964Z,946.9
2019-04-04T18:44:46.005Z,946.9
2019-04-04T18:47:51.880Z,946.9
2019-04-04T18:51:00.839Z,946.9
2019-04-04T18:54:06.804Z,946.9
2019-04-04T18:57:14.501Z,946.9
2019-04-04T19:00:23.291Z,946.9
2019-04-04T19:03:30.928Z,946.9
2019-04-04T19:06:36.885Z,947
2019-04-04T19:09:42.955Z,947.1
2019-04-04T19:12:48.976Z,947.1
2019-04-04T19:16:08.288Z,947.1
2019-04-04T19:19:14.250Z,947
2019-04-04T19:22:20.219Z,947
2019-04-04T19:25:26.267Z,947
2019-04-04T19:28:32.274Z,947
2019-04-04T19:31:38.310Z,947.1
2019-04-04T19:34:44.965Z,947.1
2019-04-04T19:38:01.318Z,947
2019-04-04T19:41:07.191Z,947.1
2019-04-04T19:44:13.186Z,947.1
2019-04-04T19:47:19.249Z,947.1
2019-04-04T19:50:25.191Z,947.1
2019-04-04T19:53:31.172Z,947.1
2019-04-04T19:56:37.130Z,947.1
2019-04-04T19:59:43.095Z,946.9
2019-04-04T20:02:49.048Z,947
2019-04-04T20:05:55.067Z,947
2019-04-04T20:09:00.933Z,947
2019-04-04T20:12:06.927Z,946.9
2019-04-04T20:15:13.005Z,946.9
2019-04-04T20:18:18.891Z,947
2019-04-04T20:21:24.913Z,947
2019-04-04T20:24:30.871Z,947
2019-04-04T20:27:36.750Z,947.1
2019-04-04T20:30:55.899Z,947.1
2019-04-04T20:34:06.729Z,947.2
2019-04-04T20:37:12.708Z,947.1
2019-04-04T20:40:18.720Z,947.2
2019-04-04T20:43:27.831Z,947.2
2019-04-04T20:46:46.796Z,947.2
2019-04-04T20:49:52.681Z,947.2
2019-04-04T20:52:58.609Z,947.2
2019-04-04T20:56:04.572Z,947.3
2019-04-04T20:59:10.636Z,947.3
2019-04-04T21:02:19.574Z,947.4
2019-04-04T21:05:25.523Z,947.4
2019-04-04T21:08:31.457Z,947.3
2019-04-04T21:11:37.449Z,947.3
2019-04-04T21:14:43.403Z,947.3
2019-04-04T21:17:49.463Z,947.2
2019-04-04T21:20:55.606Z,947.2
2019-04-04T21:24:01.587Z,947.3
2019-04-04T21:27:07.549Z,947.3
2019-04-04T21:30:13.613Z,947.3
2019-04-04T21:33:19.674Z,947.3
2019-04-04T21:36:25.632Z,947.4
2019-04-04T21:39:31.593Z,947.4
2019-04-04T21:42:37.554Z,947.3
2019-04-04T21:45:43.431Z,947.3
2019-04-04T21:48:49.421Z,947.3
2019-04-04T21:51:55.434Z,947.4
2019-04-04T21:55:01.373Z,947.3
2019-04-04T21:58:07.353Z,947.4
2019-04-04T22:01:13.231Z,947.4
2019-04-04T22:04:19.170Z,947.4
2019-04-04T22:07:25.184Z,947.4
2019-04-04T22:10:31.223Z,947.5
2019-04-04T22:13:37.254Z,947.5
2019-04-04T22:16:43.317Z,947.5
2019-04-04T22:19:49.204Z,947.5
2019-04-04T22:22:55.193Z,947.6
2019-04-04T22:26:01.123Z,947.6
2019-04-04T22:29:07.181Z,947.5
2019-04-04T22:32:13.102Z,947.5
2019-04-04T22:35:19.097Z,947.5
2019-04-04T22:38:25.148Z,947.6
2019-04-04T22:41:34.077Z,947.6
2019-04-04T22:44:40.143Z,947.5
2019-04-04T22:47:46.018Z,947.6
2019-04-04T22:50:51.955Z,947.6
2019-04-04T22:54:00.677Z,947.5
2019-04-04T22:57:06.563Z,947.5
2019-04-04T23:00:12.518Z,947.5
2019-04-04T23:03:18.554Z,947.6
2019-04-04T23:06:24.520Z,947.5
2019-04-04T23:09:30.575Z,947.5
2019-04-04T23:12:36.460Z,947.4
2019-04-04T23:15:42.500Z,947.4
2019-04-04T23:18:48.556Z,947.4
2019-04-04T23:21:54.618Z,947.4
2019-04-04T23:25:00.686Z,947.4
2019-04-04T23:28:06.753Z,947.4
2019-04-04T23:31:12.712Z,947.4
2019-04-04T23:34:18.668Z,947.4
2019-04-04T23:37:24.630Z,947.5
2019-04-04T23:40:30.602Z,947.4
2019-04-04T23:43:36.463Z,947.4
2019-04-04T23:46:42.406Z,947.3
2019-04-04T23:49:48.390Z,947.4
2019-04-04T23:52:54.454Z,947.4
2019-04-04T23:56:00.539Z,947.3
2019-04-04T23:59:06.408Z,947.3
